Time;durP1;ratioP1;P1;durP2;ratioP2;P2;SDS_P1;SDS_P2;PMS_P1;PMS_P2;Temp;Humidity;BMP_temperature;BMP_pressure;BME280_temperature;BME280_humidity;BME280_pressure;Samples;Min_cycle;Max_cycle;Signal;HPM_P1;HPM_P2
2021/07/18 00:00:14;;;;;;;7.83;2.00;;;;;;;15.88;91.58;101530.94;125047;1093;64311;-82
2021/07/18 00:02:41;;;;;;;8.90;2.40;;;;;;;15.87;92.74;101521.27;125198;1093;64311;-82
2021/07/18 00:05:09;;;;;;;5.93;1.87;;;;;;;15.88;92.36;101530.94;124839;1093;64268;-83
2021/07/18 00:07:37;;;;;;;3.15;1.35;;;;;;;15.89;92.37;101516.52;125019;1093;64358;-83
2021/07/18 00:10:06;;;;;;;4.83;1.73;;;;;;;15.88;92.80;101517.55;125029;1093;64227;-82
2021/07/18 00:12:33;;;;;;;4.80;2.23;;;;;;;15.87;93.09;101515.91;125072;1093;64354;-82
2021/07/18 00:15:00;;;;;;;7.73;2.67;;;;;;;15.86;93.38;101516.91;125073;1093;64387;-82
2021/07/18 00:17:37;;;;;;;7.57;3.13;;;;;;;15.88;93.17;101517.55;125210;1092;64215;-84
2021/07/18 00:20:06;;;;;;;10.75;2.70;;;;;;;15.88;93.69;101517.55;125108;1093;64354;-82
2021/07/18 00:22:33;;;;;;;4.37;2.20;;;;;;;15.89;94.13;101521.88;124986;1093;64294;-82
2021/07/18 00:25:00;;;;;;;6.53;3.10;;;;;;;15.90;93.65;101520.88;124975;1092;64397;-82
2021/07/18 00:27:28;;;;;;;5.40;2.85;;;;;;;15.93;94.22;101518.84;124961;1093;64291;-80
2021/07/18 00:29:55;;;;;;;11.70;4.07;;;;;;;15.94;94.73;101525.83;124935;1092;64288;-82
2021/07/18 00:32:22;;;;;;;10.93;3.37;;;;;;;15.97;94.69;101512.91;124956;1093;64236;-82
2021/07/18 00:34:49;;;;;;;8.67;3.00;;;;;;;16.00;94.34;101514.37;124953;1093;64273;-83
2021/07/18 00:37:16;;;;;;;5.43;3.37;;;;;;;16.02;94.92;101513.18;124906;1092;64304;-82
2021/07/18 00:39:43;;;;;;;5.33;3.03;;;;;;;16.06;94.78;101513.61;124905;1093;64313;-83
2021/07/18 00:42:10;;;;;;;9.23;3.90;;;;;;;16.10;94.31;101522.91;124882;1093;64221;-83
2021/07/18 00:44:37;;;;;;;7.63;3.50;;;;;;;16.13;93.80;101519.88;124858;1093;64339;-83
2021/07/18 00:47:04;;;;;;;7.77;3.23;;;;;;;16.15;94.28;101517.83;124923;1093;64313;-83
2021/07/18 00:49:31;;;;;;;8.53;2.77;;;;;;;16.17;94.51;101521.15;124931;1093;64313;-83
2021/07/18 00:51:59;;;;;;;5.75;2.40;;;;;;;16.18;94.08;101524.65;124868;1093;64864;-84
2021/07/18 00:54:27;;;;;;;10.47;3.57;;;;;;;16.17;94.18;101521.15;125014;1092;64323;-82
2021/07/18 00:56:54;;;;;;;6.37;2.50;;;;;;;16.17;94.20;101525.66;124834;1093;64218;-84
2021/07/18 00:59:21;;;;;;;11.40;3.73;;;;;;;16.15;94.04;101523.19;124840;1092;64621;-83
2021/07/18 01:01:49;;;;;;;8.80;3.20;;;;;;;16.15;94.01;101522.34;126508;1093;64356;-83
2021/07/18 01:04:16;;;;;;;6.80;3.00;;;;;;;16.12;94.52;101518.20;126210;1092;64453;-84
2021/07/18 01:06:43;;;;;;;6.47;3.07;;;;;;;16.14;93.38;101520.69;124882;1093;64355;-84
2021/07/18 01:09:11;;;;;;;13.20;3.50;;;;;;;16.13;93.93;101529.73;124897;1093;64291;-82
2021/07/18 01:11:38;;;;;;;6.87;3.43;;;;;;;16.12;93.76;101523.55;124958;1093;64220;-82
2021/07/18 01:14:06;;;;;;;9.50;2.53;;;;;;;16.14;94.00;101526.05;124925;1093;64360;-82
2021/07/18 01:16:33;;;;;;;10.30;3.75;;;;;;;16.14;93.84;101516.16;125065;1092;64294;-82
2021/07/18 01:19:00;;;;;;;6.03;2.67;;;;;;;16.14;94.14;101524.19;124924;1093;64681;-82
2021/07/18 01:21:28;;;;;;;8.93;3.13;;;;;;;16.16;93.63;101524.01;124927;1093;64280;-82
2021/07/18 01:23:55;;;;;;;5.17;2.60;;;;;;;16.14;94.50;101532.22;125083;1093;64288;-81
2021/07/18 01:26:22;;;;;;;6.27;2.60;;;;;;;16.15;94.13;101531.22;124843;1092;64349;-82
2021/07/18 01:28:50;;;;;;;5.60;3.20;;;;;;;16.15;93.53;101523.19;124889;1091;64248;-82
2021/07/18 01:31:17;;;;;;;8.03;3.70;;;;;;;16.15;94.28;101516.98;124964;1093;64299;-83
2021/07/18 01:33:44;;;;;;;7.33;2.80;;;;;;;16.16;94.25;101522.16;124911;1093;64287;-82
2021/07/18 01:36:11;;;;;;;7.67;3.30;;;;;;;16.16;93.97;101518.66;124874;1092;64294;-82
2021/07/18 01:38:38;;;;;;;3.80;2.40;;;;;;;16.14;94.32;101518.84;124932;1092;64380;-82
2021/07/18 01:41:05;;;;;;;8.17;3.23;;;;;;;16.15;94.19;101523.19;125079;1092;65391;-83
2021/07/18 01:43:32;;;;;;;6.73;3.20;;;;;;;16.17;93.93;101522.97;124994;1093;64352;-82
2021/07/18 01:46:00;;;;;;;7.23;2.67;;;;;;;16.18;94.63;101528.14;124801;1093;64298;-82
2021/07/18 01:48:27;;;;;;;7.33;3.10;;;;;;;16.21;93.92;101526.92;124814;1093;64314;-82
2021/07/18 01:50:54;;;;;;;9.40;3.13;;;;;;;16.19;94.24;101521.76;124752;1093;64278;-82
2021/07/18 01:53:21;;;;;;;7.97;3.60;;;;;;;16.20;94.14;101525.28;125458;1093;64218;-83
2021/07/18 01:55:53;;;;;;;8.60;2.87;;;;;;;16.20;94.43;101526.11;124875;1093;64408;-84
2021/07/18 01:58:28;;;;;;;5.50;2.67;;;;;;;16.18;94.52;101528.14;124900;1091;64300;-82
2021/07/18 02:00:57;;;;;;;8.27;3.17;;;;;;;16.19;94.37;101527.11;125071;1091;64291;-83
2021/07/18 02:03:24;;;;;;;11.23;3.73;;;;;;;16.17;95.01;101521.15;125085;1093;64239;-82
2021/07/18 02:05:51;;;;;;;9.50;4.23;;;;;;;16.17;94.67;101520.30;124878;1092;64320;-82
2021/07/18 02:08:19;;;;;;;8.37;3.67;;;;;;;16.18;94.50;101533.50;124879;1092;64304;-83
2021/07/18 02:10:46;;;;;;;7.23;2.93;;;;;;;16.17;94.89;101533.68;125557;1093;64314;-81
2021/07/18 02:13:16;;;;;;;7.73;3.30;;;;;;;16.18;95.08;101536.17;124869;1093;64220;-82
2021/07/18 02:15:44;;;;;;;6.57;3.67;;;;;;;16.19;94.67;101529.78;124975;1093;65490;-81
2021/07/18 02:18:13;;;;;;;6.90;3.10;;;;;;;16.20;94.82;101525.28;125014;1093;64320;-81
2021/07/18 02:20:40;;;;;;;7.67;3.57;;;;;;;16.20;94.92;101520.75;124883;1093;64314;-81
2021/07/18 02:23:07;;;;;;;8.17;3.40;;;;;;;16.20;95.13;101526.11;124892;1093;64261;-81
2021/07/18 02:25:35;;;;;;;7.27;2.87;;;;;;;16.20;94.92;101520.75;124835;1092;64255;-81
2021/07/18 02:28:03;;;;;;;6.90;3.13;;;;;;;16.19;95.19;101516.41;124803;1092;64377;-82
2021/07/18 02:30:30;;;;;;;7.03;2.93;;;;;;;16.19;95.12;101519.08;124796;1093;64368;-81
2021/07/18 02:32:57;;;;;;;7.45;4.30;;;;;;;16.20;94.80;101519.93;124903;1093;64382;-82
2021/07/18 02:35:26;;;;;;;7.53;3.80;;;;;;;16.22;94.67;101516.03;124898;1093;64400;-83
2021/07/18 02:37:53;;;;;;;7.93;3.37;;;;;;;16.23;94.67;101517.67;124971;1093;64330;-84
2021/07/18 02:40:21;;;;;;;11.67;3.73;;;;;;;16.25;94.67;101512.96;124918;1093;64217;-83
2021/07/18 02:42:50;;;;;;;5.50;2.83;;;;;;;16.24;95.16;101514.00;124933;1093;64300;-82
2021/07/18 02:45:20;;;;;;;5.47;2.77;;;;;;;16.22;95.12;101510.68;124983;1093;64294;-83
2021/07/18 02:47:48;;;;;;;6.50;3.13;;;;;;;16.20;95.26;101512.72;124932;1093;64285;-84
2021/07/18 02:50:20;;;;;;;6.47;2.87;;;;;;;16.21;95.15;101511.69;124946;1093;64211;-81
2021/07/18 02:52:47;;;;;;;7.75;2.90;;;;;;;16.22;94.92;101508.00;125247;1093;64313;-81
2021/07/18 02:55:15;;;;;;;7.87;3.17;;;;;;;16.24;94.60;101508.64;125266;1092;64403;-82
2021/07/18 02:57:42;;;;;;;9.50;3.40;;;;;;;16.27;94.85;101515.45;125198;1093;64227;-82
2021/07/18 03:00:12;;;;;;;10.33;3.13;;;;;;;16.27;94.86;101504.74;124846;1091;64326;-84
2021/07/18 03:02:45;;;;;;;6.73;3.33;;;;;;;16.27;94.72;101504.74;124910;1092;64294;-82
2021/07/18 03:05:13;;;;;;;5.23;2.73;;;;;;;16.27;94.31;101505.56;124945;1093;64421;-82
2021/07/18 03:07:41;;;;;;;6.10;2.80;;;;;;;16.28;94.12;101501.88;124973;1093;64355;-82
2021/07/18 03:10:10;;;;;;;5.13;2.67;;;;;;;16.30;94.58;101515.91;124940;1093;64386;-82
2021/07/18 03:12:37;;;;;;;7.07;3.47;;;;;;;16.31;94.18;101509.52;124886;1093;64323;-82
2021/07/18 03:15:07;;;;;;;11.73;4.50;;;;;;;16.33;94.18;101503.16;124929;1092;64236;-83
2021/07/18 03:17:34;;;;;;;7.83;3.23;;;;;;;16.31;94.38;101501.48;125100;1093;64394;-84
2021/07/18 03:20:03;;;;;;;3.80;2.27;;;;;;;16.32;94.96;101502.34;125260;1092;64205;-81
2021/07/18 03:22:32;;;;;;;6.77;3.00;;;;;;;16.33;94.50;101498.63;125141;1092;64313;-83
2021/07/18 03:25:01;;;;;;;8.87;3.47;;;;;;;16.33;93.90;101503.98;127160;1092;64238;-84
2021/07/18 03:27:28;;;;;;;8.27;3.90;;;;;;;16.35;94.38;101501.94;125773;1093;64291;-85
2021/07/18 03:29:55;;;;;;;7.10;3.43;;;;;;;16.34;94.52;101504.80;124941;1092;64329;-85
2021/07/18 03:32:23;;;;;;;5.87;2.40;;;;;;;16.34;94.22;101499.44;125078;1093;64874;-86
2021/07/18 03:34:50;;;;;;;6.40;2.57;;;;;;;16.35;94.19;101496.58;124963;1093;64857;-83
2021/07/18 03:37:17;;;;;;;6.73;3.00;;;;;;;16.34;94.35;101502.94;125897;1092;64259;-83
2021/07/18 03:39:44;;;;;;;4.93;2.30;;;;;;;16.34;94.08;101500.27;126952;1092;63065;-83
2021/07/18 03:42:11;;;;;;;4.57;2.30;;;;;;;16.35;94.24;101501.11;124895;1093;64301;-83
2021/07/18 03:44:40;;;;;;;8.53;3.30;;;;;;;16.34;94.19;101499.44;124874;1093;64329;-85
2021/07/18 03:47:08;;;;;;;9.03;3.07;;;;;;;16.36;94.14;101505.44;125212;1093;64317;-84
2021/07/18 03:49:35;;;;;;;7.23;3.93;;;;;;;16.38;93.99;101501.53;125740;1093;64305;-86
2021/07/18 03:52:02;;;;;;;7.43;3.07;;;;;;;16.39;94.26;101507.74;126048;1093;64115;-84
2021/07/18 03:54:30;;;;;;;8.13;2.80;;;;;;;16.39;94.07;101507.74;126334;1093;64221;-82
2021/07/18 03:56:57;;;;;;;8.10;2.57;;;;;;;16.40;93.80;101509.38;125221;1093;64314;-81
2021/07/18 03:59:24;;;;;;;11.77;3.40;;;;;;;16.42;93.94;101515.38;124876;1092;64331;-82
2021/07/18 04:01:52;;;;;;;8.93;3.10;;;;;;;16.42;93.94;101512.70;124900;1093;64419;-81
2021/07/18 04:04:19;;;;;;;5.83;2.27;;;;;;;16.44;93.70;101502.62;125531;1093;64329;-83
2021/07/18 04:06:46;;;;;;;5.33;2.30;;;;;;;16.46;93.62;101508.61;125842;1093;64227;-82
2021/07/18 04:09:13;;;;;;;7.73;3.63;;;;;;;16.45;93.14;101505.11;125957;1093;64327;-83
2021/07/18 04:11:40;;;;;;;6.97;2.50;;;;;;;16.46;93.16;101514.78;125075;1093;64332;-88
2021/07/18 04:14:07;;;;;;;9.05;3.20;;;;;;;16.47;93.22;101527.17;125165;1093;63696;-82
2021/07/18 04:16:34;;;;;;;6.60;3.43;;;;;;;16.49;93.04;101518.92;125164;1092;64319;-81
2021/07/18 04:19:01;;;;;;;5.27;2.47;;;;;;;16.50;92.89;101515.23;125039;1093;64270;-81
2021/07/18 04:21:28;;;;;;;8.80;3.00;;;;;;;16.53;92.91;101519.38;125154;1093;64332;-81
2021/07/18 04:23:55;;;;;;;5.43;2.40;;;;;;;16.52;92.86;101523.91;124898;1093;64365;-81
2021/07/18 04:26:23;;;;;;;7.90;3.10;;;;;;;16.53;92.41;101514.84;124986;1093;64309;-81
2021/07/18 04:28:50;;;;;;;4.97;2.40;;;;;;;16.54;92.27;101521.05;124978;1093;64316;-83
2021/07/18 04:31:17;;;;;;;4.43;2.43;;;;;;;16.54;92.17;101521.86;124967;1092;64353;-81
2021/07/18 04:33:44;;;;;;;5.23;2.43;;;;;;;16.59;92.14;101521.28;124956;1093;64311;-81
2021/07/18 04:36:11;;;;;;;5.33;2.27;;;;;;;16.62;91.96;101529.77;124836;1093;64337;-82
2021/07/18 04:38:38;;;;;;;5.73;2.50;;;;;;;16.64;91.30;101524.19;125044;1093;64253;-81
2021/07/18 04:41:05;;;;;;;6.27;2.33;;;;;;;16.66;91.11;101530.18;124983;1092;64330;-81
2021/07/18 04:43:32;;;;;;;6.73;2.50;;;;;;;16.68;90.70;101528.98;124943;1093;64365;-82
2021/07/18 04:45:59;;;;;;;6.57;3.47;;;;;;;16.72;90.72;101529.41;124930;1092;64296;-81
2021/07/18 04:48:26;;;;;;;8.17;3.23;;;;;;;16.76;90.34;101524.49;125046;1093;64209;-81
2021/07/18 04:50:53;;;;;;;6.77;3.13;;;;;;;16.78;90.24;101530.48;124971;1093;64311;-81
2021/07/18 04:53:20;;;;;;;8.90;4.30;;;;;;;16.83;90.23;101525.38;125964;1093;63378;-82
2021/07/18 04:55:47;;;;;;;5.03;2.80;;;;;;;16.88;89.99;101533.69;125245;1093;64345;-81
2021/07/18 04:58:14;;;;;;;6.13;2.60;;;;;;;16.91;89.76;101530.59;125176;1093;64323;-81
2021/07/18 05:00:41;;;;;;;5.50;2.23;;;;;;;16.97;89.55;101528.99;124952;1093;64301;-82
2021/07/18 05:03:09;;;;;;;5.93;2.57;;;;;;;16.97;88.94;101527.13;124960;1093;64377;-81
2021/07/18 05:05:37;;;;;;;5.83;2.97;;;;;;;17.00;88.97;101532.12;126288;1092;64414;-82
2021/07/18 05:08:04;;;;;;;7.35;2.55;;;;;;;17.02;88.77;101529.22;125756;1092;64299;-81
2021/07/18 05:10:31;;;;;;;7.23;2.50;;;;;;;17.06;88.90;101531.30;124879;1093;64327;-81
2021/07/18 05:12:59;;;;;;;6.93;3.00;;;;;;;17.14;88.66;101534.87;124950;1092;65065;-81
2021/07/18 05:15:27;;;;;;;3.30;2.10;;;;;;;17.19;88.03;101532.41;125054;1093;64265;-82
2021/07/18 05:17:55;;;;;;;6.47;3.37;;;;;;;17.24;88.03;101532.66;124892;1093;64274;-81
2021/07/18 05:20:22;;;;;;;6.63;3.03;;;;;;;17.27;87.72;101534.93;124846;1091;64496;-81
2021/07/18 05:22:51;;;;;;;5.40;2.83;;;;;;;17.31;87.37;101523.60;124806;1093;64278;-80
2021/07/18 05:25:18;;;;;;;5.53;2.90;;;;;;;17.39;87.54;101536.03;125105;1093;64403;-81
2021/07/18 05:27:45;;;;;;;5.87;2.90;;;;;;;17.45;86.78;101529.87;124937;1093;64323;-81
2021/07/18 05:30:13;;;;;;;8.63;2.80;;;;;;;17.52;86.23;101530.71;124820;1093;64806;-82
2021/07/18 05:32:41;;;;;;;5.80;2.67;;;;;;;17.56;85.73;101535.69;124878;1093;64335;-80
2021/07/18 05:35:10;;;;;;;5.20;3.00;;;;;;;17.56;85.30;101541.05;124973;1092;64288;-82
2021/07/18 05:37:38;;;;;;;6.47;3.50;;;;;;;17.55;85.26;101539.39;127255;1093;64228;-81
2021/07/18 05:40:07;;;;;;;8.33;3.43;;;;;;;17.55;85.15;101542.89;125925;1093;64302;-83
2021/07/18 05:42:35;;;;;;;4.63;2.70;;;;;;;17.55;85.24;101550.94;124943;1093;64268;-80
2021/07/18 05:45:06;;;;;;;9.57;3.40;;;;;;;17.57;84.84;101543.52;124861;1092;64458;-80
2021/07/18 05:47:34;;;;;;;5.93;3.03;;;;;;;17.59;84.81;101546.01;124926;1093;64867;-80
2021/07/18 05:50:04;;;;;;;5.30;2.60;;;;;;;17.57;84.03;101548.06;125035;1092;64211;-81
2021/07/18 05:52:31;;;;;;;5.47;2.77;;;;;;;17.58;83.76;101545.19;125235;1093;64219;-79
2021/07/18 05:54:58;;;;;;;5.97;3.33;;;;;;;17.62;84.14;101548.31;125031;1093;64629;-81
2021/07/18 05:57:25;;;;;;;5.50;3.10;;;;;;;17.62;83.37;101556.36;124956;1093;64307;-80
2021/07/18 05:59:53;;;;;;;5.45;3.25;;;;;;;17.60;83.08;101550.36;124988;1093;64304;-79
2021/07/18 06:02:20;;;;;;;4.83;3.00;;;;;;;17.61;83.13;101549.32;125013;1093;64300;-80
2021/07/18 06:04:47;;;;;;;7.20;3.37;;;;;;;17.69;83.16;101544.59;124838;1093;64635;-80
2021/07/18 06:07:14;;;;;;;6.67;3.57;;;;;;;17.80;83.12;101551.23;124778;1092;64330;-80
2021/07/18 06:09:41;;;;;;;5.33;3.23;;;;;;;17.88;82.89;101551.09;124937;1093;64294;-81
2021/07/18 06:12:09;;;;;;;7.27;3.90;;;;;;;17.99;82.18;101556.91;124890;1093;64394;-80
2021/07/18 06:14:37;;;;;;;6.03;2.67;;;;;;;18.13;81.91;101554.05;124838;1093;64380;-81
2021/07/18 06:17:04;;;;;;;7.35;3.40;;;;;;;18.28;81.57;101556.55;125102;1092;64233;-81
2021/07/18 06:19:31;;;;;;;6.83;3.70;;;;;;;18.40;81.33;101543.31;125122;1093;64195;-81
2021/07/18 06:21:58;;;;;;;5.00;2.30;;;;;;;18.54;80.43;101549.53;124920;1093;65403;-81
2021/07/18 06:24:26;;;;;;;7.87;4.20;;;;;;;18.69;80.78;101550.14;125075;1093;64272;-80
2021/07/18 06:26:53;;;;;;;6.63;3.67;;;;;;;18.87;80.43;101548.70;124905;1093;64259;-80
2021/07/18 06:29:21;;;;;;;4.50;2.60;;;;;;;19.03;78.57;101547.44;124917;1091;64380;-80
2021/07/18 06:31:48;;;;;;;7.20;2.90;;;;;;;19.09;77.97;101551.98;124870;1092;64221;-80
2021/07/18 06:34:15;;;;;;;4.83;2.50;;;;;;;19.14;78.11;101547.61;124912;1093;64316;-80
2021/07/18 06:36:42;;;;;;;7.53;3.93;;;;;;;19.29;78.20;101551.91;124888;1092;64333;-80
2021/07/18 06:39:10;;;;;;;6.53;3.80;;;;;;;19.39;77.66;101554.99;124821;1092;64302;-81
2021/07/18 06:41:37;;;;;;;5.43;3.23;;;;;;;19.49;77.63;101557.25;124933;1093;64294;-80
2021/07/18 06:44:04;;;;;;;7.07;4.07;;;;;;;19.56;76.83;101558.03;125035;1093;64328;-80
2021/07/18 06:46:31;;;;;;;7.87;3.87;;;;;;;19.52;76.55;101563.01;124799;1093;64412;-82
2021/07/18 06:48:59;;;;;;;8.93;4.30;;;;;;;19.47;76.06;101549.38;124983;1093;64291;-79
2021/07/18 06:51:26;;;;;;;8.57;3.97;;;;;;;19.42;76.55;101553.73;124916;1092;64268;-80
2021/07/18 06:53:54;;;;;;;8.13;3.53;;;;;;;19.38;76.27;101552.50;124815;1093;64282;-80
2021/07/18 06:56:29;;;;;;;7.88;4.03;;;;;;;19.36;76.49;101552.73;124861;1093;64339;-80
2021/07/18 06:58:58;;;;;;;8.25;3.35;;;;;;;19.38;76.33;101550.66;125029;1093;64365;-80
2021/07/18 07:01:28;;;;;;;6.53;3.30;;;;;;;19.45;76.47;101548.77;125223;1093;64383;-80
2021/07/18 07:03:56;;;;;;;3.63;2.37;;;;;;;19.47;76.26;101552.07;124926;1093;64325;-80
2021/07/18 07:06:24;;;;;;;7.60;3.07;;;;;;;19.56;76.22;101549.96;125044;1092;64291;-80
2021/07/18 07:08:52;;;;;;;6.33;3.73;;;;;;;19.68;75.72;101544.74;125069;1093;64307;-80
2021/07/18 07:11:21;;;;;;;6.53;3.20;;;;;;;19.80;74.54;101544.91;125180;1093;64310;-80
2021/07/18 07:13:50;;;;;;;5.43;3.03;;;;;;;19.80;74.57;101547.59;125065;1093;64163;-81
2021/07/18 07:16:19;;;;;;;6.95;3.60;;;;;;;19.85;74.13;101545.92;125061;1093;64313;-74
2021/07/18 07:18:47;;;;;;;7.23;3.73;;;;;;;20.00;73.95;101547.47;124808;1093;64400;-73
2021/07/18 07:21:14;;;;;;;7.57;3.73;;;;;;;20.19;73.25;101551.92;124923;1093;64314;-73
2021/07/18 07:23:42;;;;;;;8.40;3.07;;;;;;;20.30;72.55;101553.91;124575;1093;64342;-73
2021/07/18 07:26:09;;;;;;;8.00;3.30;;;;;;;20.24;71.90;101554.78;124579;1093;64288;-73
2021/07/18 07:28:37;;;;;;;8.13;3.90;;;;;;;20.15;72.36;101556.09;124668;1093;64291;-73
2021/07/18 07:31:04;;;;;;;8.87;3.40;;;;;;;20.06;72.39;101551.99;124613;1093;64349;-74
2021/07/18 07:33:33;;;;;;;7.37;3.33;;;;;;;19.91;72.39;101539.67;124731;1093;64329;-73
2021/07/18 07:36:02;;;;;;;7.70;3.30;;;;;;;19.82;73.01;101545.52;124724;1093;64371;-73
2021/07/18 07:38:29;;;;;;;8.33;4.30;;;;;;;19.78;73.47;101545.11;124803;1093;64242;-74
2021/07/18 07:40:57;;;;;;;7.43;3.87;;;;;;;19.77;73.66;101537.27;124593;1093;64294;-76
2021/07/18 07:43:24;;;;;;;11.20;3.80;;;;;;;19.79;73.74;101551.34;124706;1092;64240;-74
2021/07/18 07:45:52;;;;;;;6.63;3.87;;;;;;;19.81;73.22;101550.08;124735;1093;64391;-73
2021/07/18 07:48:19;;;;;;;5.73;3.10;;;;;;;19.95;72.96;101543.59;124838;1093;64316;-73
2021/07/18 07:50:47;;;;;;;6.70;4.03;;;;;;;19.92;72.29;101549.39;124684;1092;64718;-74
2021/07/18 07:53:14;;;;;;;5.60;3.37;;;;;;;19.87;72.45;101548.38;124656;1093;64392;-74
2021/07/18 07:55:42;;;;;;;5.73;2.40;;;;;;;20.02;72.20;101540.00;124685;1093;64368;-76
2021/07/18 07:58:09;;;;;;;6.10;3.10;;;;;;;20.13;71.83;101542.02;124818;1093;64297;-73
2021/07/18 08:00:40;;;;;;;4.43;3.10;;;;;;;20.14;71.23;101547.16;124844;1093;64307;-74
2021/07/18 08:03:09;;;;;;;6.10;3.40;;;;;;;20.14;71.34;101531.00;124678;1093;64963;-74
2021/07/18 08:05:37;;;;;;;6.13;2.90;;;;;;;20.21;71.65;101547.14;124754;1093;64757;-75
2021/07/18 08:08:05;;;;;;;7.03;3.30;;;;;;;20.13;70.32;101547.41;124727;1093;64329;-75
2021/07/18 08:10:32;;;;;;;7.87;3.47;;;;;;;20.16;70.74;101550.47;124720;1093;64387;-74
2021/07/18 08:13:00;;;;;;;5.07;2.77;;;;;;;20.29;71.16;101540.64;124815;1093;64295;-75
2021/07/18 08:15:27;;;;;;;7.40;3.67;;;;;;;20.44;70.26;101543.02;124757;1092;64212;-76
2021/07/18 08:17:54;;;;;;;5.93;3.50;;;;;;;20.60;70.13;101536.30;124713;1093;64304;-77
2021/07/18 08:20:24;;;;;;;5.23;3.50;;;;;;;20.75;68.83;101545.67;124675;1092;64310;-74
2021/07/18 08:22:54;;;;;;;7.50;3.70;;;;;;;20.81;68.04;101549.37;124714;1092;64322;-73
2021/07/18 08:25:23;;;;;;;7.17;4.03;;;;;;;20.85;68.75;101542.48;124781;1092;64353;-73
2021/07/18 08:27:51;;;;;;;7.07;3.20;;;;;;;21.08;68.15;101546.38;125199;1092;64307;-73
2021/07/18 08:30:19;;;;;;;4.90;2.90;;;;;;;21.20;68.16;101546.47;124894;1092;64291;-74
2021/07/18 08:32:50;;;;;;;6.93;3.80;;;;;;;21.23;67.19;101546.01;124718;1093;64238;-74
2021/07/18 08:35:18;;;;;;;4.93;2.87;;;;;;;21.13;66.19;101547.38;124923;1093;64307;-73
2021/07/18 08:37:46;;;;;;;5.77;2.73;;;;;;;21.10;67.16;101541.59;124654;1093;64393;-74
2021/07/18 08:40:14;;;;;;;5.93;3.50;;;;;;;21.18;67.52;101543.99;124706;1093;64265;-73
2021/07/18 08:42:42;;;;;;;7.70;3.60;;;;;;;21.35;67.04;101538.81;124704;1092;64291;-73
2021/07/18 08:45:11;;;;;;;5.80;3.40;;;;;;;21.46;66.64;101551.58;124676;1093;64296;-73
2021/07/18 08:47:40;;;;;;;7.33;3.80;;;;;;;21.51;66.13;101540.94;124883;1093;64284;-73
2021/07/18 08:50:09;;;;;;;6.40;3.20;;;;;;;21.60;65.95;101540.63;124683;1093;64386;-72
2021/07/18 08:52:37;;;;;;;5.63;3.10;;;;;;;21.37;65.42;101548.33;124650;1092;64791;-73
2021/07/18 08:55:07;;;;;;;7.17;3.00;;;;;;;21.32;66.07;101542.80;124777;1093;64310;-73
2021/07/18 08:57:38;;;;;;;4.77;3.00;;;;;;;21.20;66.28;101541.89;124671;1092;64325;-72
2021/07/18 09:00:06;;;;;;;7.67;3.20;;;;;;;21.02;66.20;101542.73;124521;1092;64342;-72
2021/07/18 09:02:34;;;;;;;5.97;3.87;;;;;;;21.17;66.85;101540.48;124615;1093;64950;-72
2021/07/18 09:05:02;;;;;;;6.07;3.23;;;;;;;21.24;65.50;101559.28;124708;1093;64557;-72
2021/07/18 09:07:30;;;;;;;5.50;3.30;;;;;;;21.21;66.18;101543.56;124615;1093;64278;-72
2021/07/18 09:10:04;;;;;;;6.20;3.13;;;;;;;21.32;66.15;101542.80;124624;1093;64300;-73
2021/07/18 09:12:32;;;;;;;8.20;3.30;;;;;;;21.43;65.59;101548.52;124610;1093;64304;-73
2021/07/18 09:15:00;;;;;;;7.83;2.97;;;;;;;21.35;64.65;101542.33;124583;1093;64317;-72
2021/07/18 09:17:34;;;;;;;3.97;2.60;;;;;;;21.25;64.99;101543.91;124814;1093;64332;-75
2021/07/18 09:20:14;;;;;;;5.77;3.37;;;;;;;21.25;65.53;101533.97;124754;1093;64272;-73
2021/07/18 09:22:41;;;;;;;6.90;3.37;;;;;;;21.21;65.49;101538.16;124811;1093;64291;-73
2021/07/18 09:25:09;;;;;;;5.17;3.87;;;;;;;21.28;65.14;101536.20;124627;1093;64268;-74
2021/07/18 09:27:36;;;;;;;7.07;4.03;;;;;;;21.46;65.66;101527.28;124634;1093;64301;-72
2021/07/18 09:30:19;;;;;;;6.90;3.83;;;;;;;21.68;65.07;101527.63;124610;1093;64253;-73
2021/07/18 09:32:48;;;;;;;8.95;3.40;;;;;;;21.99;64.62;101529.27;124697;1093;64352;-72
2021/07/18 09:35:17;;;;;;;5.73;3.50;;;;;;;21.88;63.20;101530.05;124683;1093;64251;-72
2021/07/18 09:37:47;;;;;;;5.13;3.70;;;;;;;21.87;63.66;101536.52;124787;1093;64296;-72
2021/07/18 09:40:20;;;;;;;5.83;3.27;;;;;;;21.87;63.80;101531.11;124786;1092;64288;-77
2021/07/18 09:42:58;;;;;;;4.50;3.63;;;;;;;21.79;63.11;101534.95;124660;1093;64319;-71
2021/07/18 09:45:29;;;;;;;5.30;2.77;;;;;;;21.83;64.18;101523.70;125091;1093;64297;-74
2021/07/18 09:48:04;;;;;;;4.60;2.90;;;;;;;21.91;63.21;101532.30;124797;1093;64367;-74
2021/07/18 09:50:36;;;;;;;5.40;3.77;;;;;;;22.12;63.70;101530.11;124849;1092;64314;-73
2021/07/18 09:53:05;;;;;;;5.97;3.67;;;;;;;22.21;63.29;101531.44;124819;1093;65376;-74
2021/07/18 09:55:32;;;;;;;6.27;3.80;;;;;;;22.32;62.40;101529.84;124704;1093;64429;-73
2021/07/18 10:00:41;;;;;;;5.80;3.80;;;;;;;22.31;62.47;101531.70;125781;1092;64300;-79
2021/07/18 10:03:23;;;;;;;6.10;4.30;;;;;;;22.36;62.55;101502.10;125749;1091;64308;-82
2021/07/18 10:06:17;;;;;;;5.67;3.03;;;;;;;22.46;61.81;101506.91;126570;1089;64214;-83
2021/07/18 10:08:50;;;;;;;5.43;4.15;;;;;;;22.47;60.63;101507.76;126710;1096;64256;-81
2021/07/18 10:11:20;;;;;;;5.47;3.30;;;;;;;22.48;61.84;101501.28;125325;1093;64336;-78
2021/07/18 10:17:50;;;;;;;4.67;3.33;;;;;;;22.57;60.28;101492.59;125822;1087;64320;-80
2021/07/18 10:20:22;;;;;;;7.20;4.07;;;;;;;22.76;61.66;101487.03;125367;1095;64381;-81
2021/07/18 10:22:57;;;;;;;5.97;3.90;;;;;;;22.96;60.58;101500.20;125267;1095;64214;-79
2021/07/18 10:25:26;;;;;;;4.55;3.10;;;;;;;22.99;59.71;101483.47;125676;1095;64224;-78
2021/07/18 10:28:00;;;;;;;6.07;3.33;;;;;;;22.97;59.83;101489.14;125046;1095;64299;-79
2021/07/18 10:30:31;;;;;;;9.30;3.90;;;;;;;23.07;60.12;101487.73;125003;1095;64358;-81
2021/07/18 10:33:01;;;;;;;5.20;3.40;;;;;;;23.37;60.65;101487.52;124997;1096;64380;-81
2021/07/18 10:35:32;;;;;;;5.67;4.00;;;;;;;23.51;59.22;101475.34;124938;1096;64407;-77
2021/07/18 10:38:14;;;;;;;6.50;4.33;;;;;;;23.65;58.13;101475.03;125316;1095;64297;-77
2021/07/18 10:41:06;;;;;;;8.47;4.73;;;;;;;23.56;57.51;101480.84;125168;1096;64437;-82
2021/07/18 10:43:49;;;;;;;6.73;4.00;;;;;;;23.56;57.35;101478.13;125326;1093;64289;-80
2021/07/18 10:46:40;;;;;;;5.83;3.90;;;;;;;23.63;57.79;101479.87;125208;1096;64277;-80
2021/07/18 10:49:17;;;;;;;9.47;6.27;;;;;;;23.76;57.54;101476.91;125093;1096;64320;-80
2021/07/18 10:51:54;;;;;;;5.23;3.10;;;;;;;23.83;56.92;101482.98;125597;1096;64285;-78
2021/07/18 10:54:40;;;;;;;7.83;3.47;;;;;;;23.91;57.43;101466.33;125588;1096;64307;-79
2021/07/18 10:57:33;;;;;;;5.08;3.60;;;;;;;24.08;57.56;101473.63;126358;1095;64339;-79
2021/07/18 11:00:25;;;;;;;6.20;3.07;;;;;;;24.15;56.13;101468.88;125356;1095;64478;-78
2021/07/18 11:03:07;;;;;;;3.53;2.60;;;;;;;24.11;56.29;101478.57;125231;1096;64384;-79
2021/07/18 11:05:40;;;;;;;4.40;2.93;;;;;;;24.12;56.12;101469.36;125538;1095;64303;-81
2021/07/18 11:08:10;;;;;;;4.60;3.10;;;;;;;24.14;56.00;101467.22;125823;1095;64814;-81
2021/07/18 11:10:54;;;;;;;5.90;3.30;;;;;;;24.10;56.37;101460.65;125350;1095;64323;-81
2021/07/18 11:13:22;;;;;;;5.60;3.73;;;;;;;24.05;56.87;101464.10;125622;1096;64213;-79
2021/07/18 11:15:55;;;;;;;6.30;2.90;;;;;;;24.04;56.62;101462.47;125398;1096;64236;-78
2021/07/18 11:18:37;;;;;;;5.13;3.47;;;;;;;24.03;56.27;101457.30;125248;1096;64213;-80
2021/07/18 11:28:11;;;;;;;4.53;3.17;;;;;;;24.55;55.40;101451.61;125539;1095;64306;-82
2021/07/18 11:31:13;;;;;;;3.87;2.70;;;;;;;24.61;55.20;101442.48;125757;1096;64184;-80
2021/07/18 11:34:25;;;;;;;5.47;2.80;;;;;;;24.83;54.32;101450.63;125640;1096;62143;-84
2021/07/18 11:36:54;;;;;;;4.90;2.90;;;;;;;24.85;53.28;101442.23;125625;1096;64287;-81
2021/07/18 11:39:25;;;;;;;4.25;2.50;;;;;;;24.86;53.78;101438.44;125467;1095;64358;-79